<?xml version="1.0" encoding="UTF-8" standalone="no" ?>
<gpx xmlns="http://www.topografix.com/GPX/1/1" xmlns:xsi="http://www.w3.org/2001/XMLSchema-instance" xsi:schemaLocation="http://www.topografix.com/GPX/1/1 http://www.topografix.com/GPX/1/1/gpx.xsd" version="1.1" creator="VisuGPX - https://www.visugpx.com">
  <metadata>
    <name>Liausson - Mourèze</name>
    <desc><![CDATA[2017-11 - Liausson - Combe de Lousses - Mourèze

[b]album[/b] : [url]https://photos.app.goo.gl/3S3bSNFm8LocMRM88[/url]
[img]https://2.bp.blogspot.com/-eRLFJk3EztA/WNjm6ZWxJMI/AAAAAAAARvg/TNJleQShNsYFg9iP7sx6dKvLPgOmLZtTwCLcB/s1600/2013-03-03_Moureze-Liausson_i.JPG[/img]
[b]Idées de randonnées dans la même région[/b]
Parcours : [url]https://www.visugpx.com/membres/24856/causses/salagou/[/url]
Photos : [url]https://jcvertygo.blogspot.com/p/salagou.html[/url]]]></desc>
  </metadata>
  <trk>
    <name><![CDATA[2017-11-20_15h22m55_liausson]]></name>
    <extensions>
      <line xmlns="http://www.topografix.com/GPX/gpx_style/0/2">
        <color>0000FF</color>
        <width>4</width>
      </line>
    </extensions>
    <trkseg>
      <trkpt lat="43.63435" lon="3.36956">
        <ele>288.7</ele>
        <time>2017-11-20T11:50:26Z</time>
      </trkpt>
      <trkpt lat="43.63451" lon="3.36939">
        <ele>282.0156584067</ele>
        <time>2017-11-20T11:51:06Z</time>
      </trkpt>
      <trkpt lat="43.63475" lon="3.369">
        <ele>281.65159689399</ele>
        <time>2017-11-20T11:51:34Z</time>
      </trkpt>
      <trkpt lat="43.63473" lon="3.36881">
        <ele>282.34927884534</ele>
        <time>2017-11-20T11:51:34Z</time>
      </trkpt>
      <trkpt lat="43.63472" lon="3.36802">
        <ele>279.60479894698</ele>
        <time>2017-11-20T11:52:28Z</time>
      </trkpt>
      <trkpt lat="43.63467" lon="3.36771">
        <ele>277.42558407761</ele>
        <time>2017-11-20T11:52:46Z</time>
      </trkpt>
      <trkpt lat="43.63459" lon="3.36735">
        <ele>275.76167809918</ele>
        <time>2017-11-20T11:53:16Z</time>
      </trkpt>
      <trkpt lat="43.63476" lon="3.3669">
        <ele>274.12470529367</ele>
        <time>2017-11-20T11:53:41Z</time>
      </trkpt>
      <trkpt lat="43.6348" lon="3.36671">
        <ele>272.64594288716</ele>
        <time>2017-11-20T11:54:00Z</time>
      </trkpt>
      <trkpt lat="43.63485" lon="3.36669">
        <ele>272.64594288716</ele>
        <time>2017-11-20T11:54:18Z</time>
      </trkpt>
      <trkpt lat="43.6359" lon="3.36588">
        <ele>270.26792964229</ele>
        <time>2017-11-20T11:54:47Z</time>
      </trkpt>
      <trkpt lat="43.63587" lon="3.3658">
        <ele>270.26792964229</ele>
        <time>2017-11-20T11:54:52Z</time>
      </trkpt>
      <trkpt lat="43.63583" lon="3.36569">
        <ele>268.18222775973</ele>
        <time>2017-11-20T11:55:18Z</time>
      </trkpt>
      <trkpt lat="43.63579" lon="3.3656">
        <ele>268.18222775973</ele>
        <time>2017-11-20T11:55:18Z</time>
      </trkpt>
      <trkpt lat="43.63554" lon="3.36467">
        <ele>266.69099653878</ele>
        <time>2017-11-20T11:56:12Z</time>
      </trkpt>
      <trkpt lat="43.63555" lon="3.36452">
        <ele>265.06819616427</ele>
        <time>2017-11-20T11:56:46Z</time>
      </trkpt>
      <trkpt lat="43.63546" lon="3.36444">
        <ele>263.47749936911</ele>
        <time>2017-11-20T11:57:01Z</time>
      </trkpt>
      <trkpt lat="43.63536" lon="3.36352">
        <ele>261.27264777139</ele>
        <time>2017-11-20T11:58:00Z</time>
      </trkpt>
      <trkpt lat="43.63537" lon="3.36348">
        <ele>261.27264777139</ele>
        <time>2017-11-20T11:58:00Z</time>
      </trkpt>
      <trkpt lat="43.63534" lon="3.36322">
        <ele>259.13498342786</ele>
        <time>2017-11-20T11:58:22Z</time>
      </trkpt>
      <trkpt lat="43.63472" lon="3.36199">
        <ele>256.5228684338</ele>
        <time>2017-11-20T11:59:51Z</time>
      </trkpt>
      <trkpt lat="43.63471" lon="3.36186">
        <ele>256.5228684338</ele>
        <time>2017-11-20T11:59:51Z</time>
      </trkpt>
      <trkpt lat="43.63469" lon="3.36168">
        <ele>253.90196161162</ele>
        <time>2017-11-20T12:00:01Z</time>
      </trkpt>
      <trkpt lat="43.63468" lon="3.3616">
        <ele>253.90196161162</ele>
        <time>2017-11-20T12:00:06Z</time>
      </trkpt>
      <trkpt lat="43.63469" lon="3.36071">
        <ele>250.93901734605</ele>
        <time>2017-11-20T12:01:00Z</time>
      </trkpt>
      <trkpt lat="43.6347" lon="3.3607">
        <ele>250.93901734605</ele>
        <time>2017-11-20T12:01:01Z</time>
      </trkpt>
      <trkpt lat="43.63492" lon="3.36021">
        <ele>249.25080546501</ele>
        <time>2017-11-20T12:02:05Z</time>
      </trkpt>
      <trkpt lat="43.6348" lon="3.36003">
        <ele>248.49592529326</ele>
        <time>2017-11-20T12:02:30Z</time>
      </trkpt>
      <trkpt lat="43.63479" lon="3.35999">
        <ele>248.49592529326</ele>
        <time>2017-11-20T12:02:30Z</time>
      </trkpt>
      <trkpt lat="43.63464" lon="3.35877">
        <ele>249.5414938486</ele>
        <time>2017-11-20T12:04:06Z</time>
      </trkpt>
      <trkpt lat="43.63467" lon="3.35857">
        <ele>250.80559566776</ele>
        <time>2017-11-20T12:04:23Z</time>
      </trkpt>
      <trkpt lat="43.63468" lon="3.35821">
        <ele>252.21310601462</ele>
        <time>2017-11-20T12:04:34Z</time>
      </trkpt>
      <trkpt lat="43.63454" lon="3.358">
        <ele>254.02449756187</ele>
        <time>2017-11-20T12:05:00Z</time>
      </trkpt>
      <trkpt lat="43.63452" lon="3.35799">
        <ele>254.02449756187</ele>
        <time>2017-11-20T12:05:01Z</time>
      </trkpt>
      <trkpt lat="43.63425" lon="3.35782">
        <ele>256.54207427727</ele>
        <time>2017-11-20T12:05:47Z</time>
      </trkpt>
      <trkpt lat="43.63421" lon="3.35778">
        <ele>256.54207427727</ele>
        <time>2017-11-20T12:05:47Z</time>
      </trkpt>
      <trkpt lat="43.63402" lon="3.35762">
        <ele>259.8324313225</ele>
        <time>2017-11-20T12:06:20Z</time>
      </trkpt>
      <trkpt lat="43.63396" lon="3.35756">
        <ele>259.8324313225</ele>
        <time>2017-11-20T12:06:20Z</time>
      </trkpt>
      <trkpt lat="43.63367" lon="3.35729">
        <ele>264.18530363547</ele>
        <time>2017-11-20T12:07:12Z</time>
      </trkpt>
      <trkpt lat="43.63355" lon="3.35712">
        <ele>268.63505321616</ele>
        <time>2017-11-20T12:07:30Z</time>
      </trkpt>
      <trkpt lat="43.63348" lon="3.35705">
        <ele>268.63505321616</ele>
        <time>2017-11-20T12:07:30Z</time>
      </trkpt>
      <trkpt lat="43.63324" lon="3.35688">
        <ele>273.69000075902</ele>
        <time>2017-11-20T12:08:05Z</time>
      </trkpt>
      <trkpt lat="43.63303" lon="3.35673">
        <ele>279.37962478152</ele>
        <time>2017-11-20T12:08:43Z</time>
      </trkpt>
      <trkpt lat="43.63291" lon="3.3567">
        <ele>285.17711549394</ele>
        <time>2017-11-20T12:08:57Z</time>
      </trkpt>
      <trkpt lat="43.63286" lon="3.35672">
        <ele>285.17711549394</ele>
        <time>2017-11-20T12:09:04Z</time>
      </trkpt>
      <trkpt lat="43.63258" lon="3.35698">
        <ele>292.08356287026</ele>
        <time>2017-11-20T12:09:57Z</time>
      </trkpt>
      <trkpt lat="43.63248" lon="3.35715">
        <ele>299.24911364552</ele>
        <time>2017-11-20T12:10:20Z</time>
      </trkpt>
      <trkpt lat="43.63233" lon="3.35759">
        <ele>307.30135811751</ele>
        <time>2017-11-20T12:11:05Z</time>
      </trkpt>
      <trkpt lat="43.63232" lon="3.35759">
        <ele>307.30135811751</ele>
        <time>2017-11-20T12:11:06Z</time>
      </trkpt>
      <trkpt lat="43.63231" lon="3.35756">
        <ele>307.30135811751</ele>
        <time>2017-11-20T12:11:11Z</time>
      </trkpt>
      <trkpt lat="43.63237" lon="3.35743">
        <ele>315.04065403699</ele>
        <time>2017-11-20T12:11:42Z</time>
      </trkpt>
      <trkpt lat="43.63234" lon="3.35712">
        <ele>322.57016357879</ele>
        <time>2017-11-20T12:12:11Z</time>
      </trkpt>
      <trkpt lat="43.63235" lon="3.3571">
        <ele>322.57016357879</ele>
        <time>2017-11-20T12:12:16Z</time>
      </trkpt>
      <trkpt lat="43.63233" lon="3.35691">
        <ele>329.54758771103</ele>
        <time>2017-11-20T12:12:26Z</time>
      </trkpt>
      <trkpt lat="43.63232" lon="3.35686">
        <ele>329.54758771103</ele>
        <time>2017-11-20T12:12:31Z</time>
      </trkpt>
      <trkpt lat="43.63229" lon="3.35674">
        <ele>335.97333545872</ele>
        <time>2017-11-20T12:12:41Z</time>
      </trkpt>
      <trkpt lat="43.63228" lon="3.35668">
        <ele>335.97333545872</ele>
        <time>2017-11-20T12:12:46Z</time>
      </trkpt>
      <trkpt lat="43.63226" lon="3.35656">
        <ele>341.93303449848</ele>
        <time>2017-11-20T12:12:56Z</time>
      </trkpt>
      <trkpt lat="43.63225" lon="3.35652">
        <ele>341.93303449848</ele>
        <time>2017-11-20T12:13:05Z</time>
      </trkpt>
      <trkpt lat="43.63219" lon="3.35634">
        <ele>347.47998838634</ele>
        <time>2017-11-20T12:13:17Z</time>
      </trkpt>
      <trkpt lat="43.6322" lon="3.35632">
        <ele>347.47998838634</ele>
        <time>2017-11-20T12:13:21Z</time>
      </trkpt>
      <trkpt lat="43.63208" lon="3.35599">
        <ele>352.13092858319</ele>
        <time>2017-11-20T12:14:31Z</time>
      </trkpt>
      <trkpt lat="43.63201" lon="3.35589">
        <ele>356.15958549264</ele>
        <time>2017-11-20T12:14:31Z</time>
      </trkpt>
      <trkpt lat="43.6319" lon="3.35561">
        <ele>359.66848355172</ele>
        <time>2017-11-20T12:15:08Z</time>
      </trkpt>
      <trkpt lat="43.63188" lon="3.35554">
        <ele>359.66848355172</ele>
        <time>2017-11-20T12:15:08Z</time>
      </trkpt>
      <trkpt lat="43.6317" lon="3.35516">
        <ele>362.78814458662</ele>
        <time>2017-11-20T12:15:58Z</time>
      </trkpt>
      <trkpt lat="43.63167" lon="3.35511">
        <ele>362.78814458662</ele>
        <time>2017-11-20T12:15:58Z</time>
      </trkpt>
      <trkpt lat="43.63157" lon="3.35492">
        <ele>365.42278799964</ele>
        <time>2017-11-20T12:16:34Z</time>
      </trkpt>
      <trkpt lat="43.63148" lon="3.35492">
        <ele>365.42278799964</ele>
        <time>2017-11-20T12:16:42Z</time>
      </trkpt>
      <trkpt lat="43.63143" lon="3.35494">
        <ele>367.82849735289</ele>
        <time>2017-11-20T12:16:50Z</time>
      </trkpt>
      <trkpt lat="43.63133" lon="3.35441">
        <ele>371.02595528969</ele>
        <time>2017-11-20T12:18:07Z</time>
      </trkpt>
      <trkpt lat="43.63137" lon="3.35438">
        <ele>371.02595528969</ele>
        <time>2017-11-20T12:18:07Z</time>
      </trkpt>
      <trkpt lat="43.6322" lon="3.35333">
        <ele>376.6430501554</ele>
        <time>2017-11-20T12:20:53Z</time>
      </trkpt>
      <trkpt lat="43.63221" lon="3.35323">
        <ele>376.6430501554</ele>
        <time>2017-11-20T12:20:53Z</time>
      </trkpt>
      <trkpt lat="43.63222" lon="3.35309">
        <ele>381.98984641187</ele>
        <time>2017-11-20T12:21:11Z</time>
      </trkpt>
      <trkpt lat="43.63223" lon="3.35302">
        <ele>381.98984641187</ele>
        <time>2017-11-20T12:21:11Z</time>
      </trkpt>
      <trkpt lat="43.6323" lon="3.35211">
        <ele>388.46344672247</ele>
        <time>2017-11-20T12:22:33Z</time>
      </trkpt>
      <trkpt lat="43.63232" lon="3.35184">
        <ele>394.6712402254</ele>
        <time>2017-11-20T12:22:54Z</time>
      </trkpt>
      <trkpt lat="43.63237" lon="3.35162">
        <ele>400.38054868522</ele>
        <time>2017-11-20T12:24:03Z</time>
      </trkpt>
      <trkpt lat="43.63239" lon="3.35131">
        <ele>405.60604581483</ele>
        <time>2017-11-20T12:24:44Z</time>
      </trkpt>
      <trkpt lat="43.63267" lon="3.35028">
        <ele>411.63185185964</ele>
        <time>2017-11-20T12:27:08Z</time>
      </trkpt>
      <trkpt lat="43.63282" lon="3.34899">
        <ele>418.68833281229</ele>
        <time>2017-11-20T12:28:56Z</time>
      </trkpt>
      <trkpt lat="43.63284" lon="3.34867">
        <ele>425.25210379137</ele>
        <time>2017-11-20T12:29:24Z</time>
      </trkpt>
      <trkpt lat="43.63287" lon="3.34855">
        <ele>425.25210379137</ele>
        <time>2017-11-20T12:29:24Z</time>
      </trkpt>
      <trkpt lat="43.63296" lon="3.34828">
        <ele>431.39879879739</ele>
        <time>2017-11-20T12:30:00Z</time>
      </trkpt>
      <trkpt lat="43.63317" lon="3.34759">
        <ele>438.24990633544</ele>
        <time>2017-11-20T12:30:55Z</time>
      </trkpt>
      <trkpt lat="43.63319" lon="3.34757">
        <ele>438.24990633544</ele>
        <time>2017-11-20T12:30:55Z</time>
      </trkpt>
      <trkpt lat="43.63319" lon="3.34756">
        <ele>438.24990633544</ele>
        <time>2017-11-20T12:31:00Z</time>
      </trkpt>
      <trkpt lat="43.63345" lon="3.34711">
        <ele>445.12561112575</ele>
        <time>2017-11-20T12:31:53Z</time>
      </trkpt>
      <trkpt lat="43.63348" lon="3.34711">
        <ele>445.12561112575</ele>
        <time>2017-11-20T12:31:53Z</time>
      </trkpt>
      <trkpt lat="43.63355" lon="3.34704">
        <ele>451.80636376268</ele>
        <time>2017-11-20T12:33:09Z</time>
      </trkpt>
      <trkpt lat="43.63357" lon="3.34705">
        <ele>451.80636376268</ele>
        <time>2017-11-20T12:34:36Z</time>
      </trkpt>
      <trkpt lat="43.63359" lon="3.347">
        <ele>451.80636376268</ele>
        <time>2017-11-20T12:41:14Z</time>
      </trkpt>
      <trkpt lat="43.63358" lon="3.34698">
        <ele>451.80636376268</ele>
        <time>2017-11-20T12:41:26Z</time>
      </trkpt>
      <trkpt lat="43.63358" lon="3.34697">
        <ele>451.80636376268</ele>
        <time>2017-11-20T12:41:41Z</time>
      </trkpt>
      <trkpt lat="43.63349" lon="3.347">
        <ele>458.73254038842</ele>
        <time>2017-11-20T12:42:04Z</time>
      </trkpt>
      <trkpt lat="43.63348" lon="3.347">
        <ele>458.73254038842</ele>
        <time>2017-11-20T12:42:06Z</time>
      </trkpt>
      <trkpt lat="43.63347" lon="3.34702">
        <ele>458.73254038842</ele>
        <time>2017-11-20T12:42:11Z</time>
      </trkpt>
      <trkpt lat="43.63346" lon="3.34702">
        <ele>458.73254038842</ele>
        <time>2017-11-20T12:42:16Z</time>
      </trkpt>
      <trkpt lat="43.63342" lon="3.34706">
        <ele>458.73254038842</ele>
        <time>2017-11-20T12:43:36Z</time>
      </trkpt>
      <trkpt lat="43.63339" lon="3.34706">
        <ele>464.92537169504</ele>
        <time>2017-11-20T12:43:57Z</time>
      </trkpt>
      <trkpt lat="43.63351" lon="3.34665">
        <ele>470.17267538689</ele>
        <time>2017-11-20T12:44:17Z</time>
      </trkpt>
      <trkpt lat="43.63348" lon="3.34564">
        <ele>474.82991849065</ele>
        <time>2017-11-20T12:45:31Z</time>
      </trkpt>
      <trkpt lat="43.63347" lon="3.34555">
        <ele>474.82991849065</ele>
        <time>2017-11-20T12:45:36Z</time>
      </trkpt>
      <trkpt lat="43.63371" lon="3.3441">
        <ele>479.53412600192</ele>
        <time>2017-11-20T12:47:37Z</time>
      </trkpt>
      <trkpt lat="43.63376" lon="3.34401">
        <ele>479.53412600192</ele>
        <time>2017-11-20T12:47:38Z</time>
      </trkpt>
      <trkpt lat="43.63381" lon="3.34391">
        <ele>483.80985719674</ele>
        <time>2017-11-20T12:47:52Z</time>
      </trkpt>
      <trkpt lat="43.63384" lon="3.34387">
        <ele>483.80985719674</ele>
        <time>2017-11-20T12:47:52Z</time>
      </trkpt>
      <trkpt lat="43.63393" lon="3.3438">
        <ele>487.69206703692</ele>
        <time>2017-11-20T12:48:10Z</time>
      </trkpt>
      <trkpt lat="43.63398" lon="3.34373">
        <ele>487.69206703692</ele>
        <time>2017-11-20T12:48:10Z</time>
      </trkpt>
      <trkpt lat="43.63402" lon="3.34356">
        <ele>491.1552575789</ele>
        <time>2017-11-20T12:48:35Z</time>
      </trkpt>
      <trkpt lat="43.63401" lon="3.3435">
        <ele>491.1552575789</ele>
        <time>2017-11-20T12:48:35Z</time>
      </trkpt>
      <trkpt lat="43.63429" lon="3.34298">
        <ele>494.42557772022</ele>
        <time>2017-11-20T12:50:00Z</time>
      </trkpt>
      <trkpt lat="43.63441" lon="3.34213">
        <ele>496.57324076453</ele>
        <time>2017-11-20T12:51:54Z</time>
      </trkpt>
      <trkpt lat="43.63413" lon="3.34156">
        <ele>496.41120138109</ele>
        <time>2017-11-20T12:53:08Z</time>
      </trkpt>
      <trkpt lat="43.63407" lon="3.34152">
        <ele>496.41120138109</ele>
        <time>2017-11-20T12:53:09Z</time>
      </trkpt>
      <trkpt lat="43.63401" lon="3.34144">
        <ele>495.5139626917</ele>
        <time>2017-11-20T12:53:24Z</time>
      </trkpt>
      <trkpt lat="43.63396" lon="3.34134">
        <ele>495.5139626917</ele>
        <time>2017-11-20T12:53:35Z</time>
      </trkpt>
      <trkpt lat="43.63394" lon="3.34132">
        <ele>493.86561798595</ele>
        <time>2017-11-20T12:53:35Z</time>
      </trkpt>
      <trkpt lat="43.63394" lon="3.34131">
        <ele>493.86561798595</ele>
        <time>2017-11-20T12:53:36Z</time>
      </trkpt>
      <trkpt lat="43.6338" lon="3.34106">
        <ele>491.06166465045</ele>
        <time>2017-11-20T12:54:01Z</time>
      </trkpt>
      <trkpt lat="43.63375" lon="3.34079">
        <ele>487.65911891544</ele>
        <time>2017-11-20T12:54:23Z</time>
      </trkpt>
      <trkpt lat="43.63371" lon="3.34076">
        <ele>487.65911891544</ele>
        <time>2017-11-20T12:54:23Z</time>
      </trkpt>
      <trkpt lat="43.63353" lon="3.34046">
        <ele>482.667852067</ele>
        <time>2017-11-20T12:54:51Z</time>
      </trkpt>
      <trkpt lat="43.63353" lon="3.34046">
        <ele>482.667852067</ele>
        <time>2017-11-20T12:54:56Z</time>
      </trkpt>
      <trkpt lat="43.63347" lon="3.34042">
        <ele>482.667852067</ele>
        <time>2017-11-20T12:55:31Z</time>
      </trkpt>
      <trkpt lat="43.63339" lon="3.34008">
        <ele>473.37011114845</ele>
        <time>2017-11-20T12:56:16Z</time>
      </trkpt>
      <trkpt lat="43.6332" lon="3.34004">
        <ele>464.2750952047</ele>
        <time>2017-11-20T12:56:48Z</time>
      </trkpt>
      <trkpt lat="43.63298" lon="3.33998">
        <ele>455.28743691687</ele>
        <time>2017-11-20T12:57:04Z</time>
      </trkpt>
      <trkpt lat="43.63294" lon="3.33999">
        <ele>455.28743691687</ele>
        <time>2017-11-20T12:57:04Z</time>
      </trkpt>
      <trkpt lat="43.63258" lon="3.33993">
        <ele>446.18886138738</ele>
        <time>2017-11-20T12:57:34Z</time>
      </trkpt>
      <trkpt lat="43.63256" lon="3.33993">
        <ele>446.18886138738</ele>
        <time>2017-11-20T12:57:36Z</time>
      </trkpt>
      <trkpt lat="43.63241" lon="3.33963">
        <ele>436.95087854533</ele>
        <time>2017-11-20T12:58:07Z</time>
      </trkpt>
      <trkpt lat="43.6324" lon="3.33962">
        <ele>436.95087854533</ele>
        <time>2017-11-20T12:58:07Z</time>
      </trkpt>
      <trkpt lat="43.63228" lon="3.33926">
        <ele>427.73480824136</ele>
        <time>2017-11-20T12:58:40Z</time>
      </trkpt>
      <trkpt lat="43.63203" lon="3.33874">
        <ele>418.41553895603</ele>
        <time>2017-11-20T12:59:39Z</time>
      </trkpt>
      <trkpt lat="43.63196" lon="3.33869">
        <ele>418.41553895603</ele>
        <time>2017-11-20T12:59:45Z</time>
      </trkpt>
      <trkpt lat="43.63168" lon="3.33832">
        <ele>408.83384738053</ele>
        <time>2017-11-20T13:00:32Z</time>
      </trkpt>
      <trkpt lat="43.63142" lon="3.33806">
        <ele>399.53457039615</ele>
        <time>2017-11-20T13:01:08Z</time>
      </trkpt>
      <trkpt lat="43.63097" lon="3.33799">
        <ele>390.64607598358</ele>
        <time>2017-11-20T13:01:36Z</time>
      </trkpt>
      <trkpt lat="43.6308" lon="3.33799">
        <ele>382.47292453965</ele>
        <time>2017-11-20T13:02:08Z</time>
      </trkpt>
      <trkpt lat="43.63053" lon="3.33792">
        <ele>374.9485592241</ele>
        <time>2017-11-20T13:02:25Z</time>
      </trkpt>
      <trkpt lat="43.63045" lon="3.33787">
        <ele>374.9485592241</ele>
        <time>2017-11-20T13:02:25Z</time>
      </trkpt>
      <trkpt lat="43.63044" lon="3.33786">
        <ele>367.97989679001</ele>
        <time>2017-11-20T13:02:26Z</time>
      </trkpt>
      <trkpt lat="43.6296" lon="3.33747">
        <ele>359.97875399051</ele>
        <time>2017-11-20T13:03:42Z</time>
      </trkpt>
      <trkpt lat="43.62923" lon="3.33763">
        <ele>352.31604768192</ele>
        <time>2017-11-20T13:05:07Z</time>
      </trkpt>
      <trkpt lat="43.62826" lon="3.33721">
        <ele>345.00574439258</ele>
        <time>2017-11-20T13:06:56Z</time>
      </trkpt>
      <trkpt lat="43.62815" lon="3.33717">
        <ele>338.3328732909</ele>
        <time>2017-11-20T13:06:56Z</time>
      </trkpt>
      <trkpt lat="43.6279" lon="3.33731">
        <ele>332.4578857849</ele>
        <time>2017-11-20T13:07:21Z</time>
      </trkpt>
      <trkpt lat="43.62774" lon="3.33746">
        <ele>327.39648086232</ele>
        <time>2017-11-20T13:07:46Z</time>
      </trkpt>
      <trkpt lat="43.62769" lon="3.33753">
        <ele>327.39648086232</ele>
        <time>2017-11-20T13:07:46Z</time>
      </trkpt>
      <trkpt lat="43.62742" lon="3.33781">
        <ele>322.90036937396</ele>
        <time>2017-11-20T13:08:21Z</time>
      </trkpt>
      <trkpt lat="43.62729" lon="3.33801">
        <ele>318.76583680735</ele>
        <time>2017-11-20T13:08:35Z</time>
      </trkpt>
      <trkpt lat="43.62716" lon="3.33812">
        <ele>315.01860704876</ele>
        <time>2017-11-20T13:09:03Z</time>
      </trkpt>
      <trkpt lat="43.62693" lon="3.33842">
        <ele>311.66618183716</ele>
        <time>2017-11-20T13:09:28Z</time>
      </trkpt>
      <trkpt lat="43.62686" lon="3.3385">
        <ele>308.80017167335</ele>
        <time>2017-11-20T13:09:29Z</time>
      </trkpt>
      <trkpt lat="43.62644" lon="3.33894">
        <ele>305.78213529579</ele>
        <time>2017-11-20T13:10:24Z</time>
      </trkpt>
      <trkpt lat="43.62637" lon="3.33904">
        <ele>303.13100267427</ele>
        <time>2017-11-20T13:10:24Z</time>
      </trkpt>
      <trkpt lat="43.62619" lon="3.33933">
        <ele>300.87872560656</ele>
        <time>2017-11-20T13:10:58Z</time>
      </trkpt>
      <trkpt lat="43.62594" lon="3.33959">
        <ele>298.30317755363</ele>
        <time>2017-11-20T13:11:30Z</time>
      </trkpt>
      <trkpt lat="43.6257" lon="3.33996">
        <ele>295.8463428787</ele>
        <time>2017-11-20T13:12:09Z</time>
      </trkpt>
      <trkpt lat="43.62564" lon="3.34004">
        <ele>295.8463428787</ele>
        <time>2017-11-20T13:12:09Z</time>
      </trkpt>
      <trkpt lat="43.62523" lon="3.3408">
        <ele>292.15730786295</ele>
        <time>2017-11-20T13:13:14Z</time>
      </trkpt>
      <trkpt lat="43.62523" lon="3.34081">
        <ele>292.15730786295</ele>
        <time>2017-11-20T13:13:16Z</time>
      </trkpt>
      <trkpt lat="43.62523" lon="3.34081">
        <ele>292.15730786295</ele>
        <time>2017-11-20T13:13:21Z</time>
      </trkpt>
      <trkpt lat="43.6252" lon="3.34088">
        <ele>292.15730786295</ele>
        <time>2017-11-20T13:13:41Z</time>
      </trkpt>
      <trkpt lat="43.62517" lon="3.34092">
        <ele>288.12209440796</ele>
        <time>2017-11-20T13:13:46Z</time>
      </trkpt>
      <trkpt lat="43.62515" lon="3.34097">
        <ele>288.12209440796</ele>
        <time>2017-11-20T13:13:56Z</time>
      </trkpt>
      <trkpt lat="43.62507" lon="3.34104">
        <ele>284.07169372665</ele>
        <time>2017-11-20T13:14:11Z</time>
      </trkpt>
      <trkpt lat="43.62508" lon="3.34105">
        <ele>284.07169372665</ele>
        <time>2017-11-20T13:14:16Z</time>
      </trkpt>
      <trkpt lat="43.62503" lon="3.34106">
        <ele>284.07169372665</ele>
        <time>2017-11-20T13:14:31Z</time>
      </trkpt>
      <trkpt lat="43.62491" lon="3.34116">
        <ele>280.26909489607</ele>
        <time>2017-11-20T13:14:51Z</time>
      </trkpt>
      <trkpt lat="43.62481" lon="3.34132">
        <ele>276.89916203005</ele>
        <time>2017-11-20T13:14:59Z</time>
      </trkpt>
      <trkpt lat="43.62479" lon="3.34134">
        <ele>276.89916203005</ele>
        <time>2017-11-20T13:15:01Z</time>
      </trkpt>
      <trkpt lat="43.62463" lon="3.3414">
        <ele>273.94413215474</ele>
        <time>2017-11-20T13:15:25Z</time>
      </trkpt>
      <trkpt lat="43.62452" lon="3.34147">
        <ele>271.4725768482</ele>
        <time>2017-11-20T13:15:25Z</time>
      </trkpt>
      <trkpt lat="43.62422" lon="3.34172">
        <ele>269.09943460844</ele>
        <time>2017-11-20T13:15:55Z</time>
      </trkpt>
      <trkpt lat="43.62372" lon="3.34226">
        <ele>266.68372425421</ele>
        <time>2017-11-20T13:16:49Z</time>
      </trkpt>
      <trkpt lat="43.62362" lon="3.34233">
        <ele>264.09473788541</ele>
        <time>2017-11-20T13:16:50Z</time>
      </trkpt>
      <trkpt lat="43.62316" lon="3.3429">
        <ele>261.02427575864</ele>
        <time>2017-11-20T13:17:38Z</time>
      </trkpt>
      <trkpt lat="43.62307" lon="3.34307">
        <ele>258.29793775841</ele>
        <time>2017-11-20T13:18:00Z</time>
      </trkpt>
      <trkpt lat="43.62231" lon="3.34341">
        <ele>255.12269153237</ele>
        <time>2017-11-20T13:19:06Z</time>
      </trkpt>
      <trkpt lat="43.62177" lon="3.34387">
        <ele>251.77395931446</ele>
        <time>2017-11-20T13:19:54Z</time>
      </trkpt>
      <trkpt lat="43.62174" lon="3.34389">
        <ele>251.77395931446</ele>
        <time>2017-11-20T13:20:00Z</time>
      </trkpt>
      <trkpt lat="43.62162" lon="3.34414">
        <ele>248.89642449518</ele>
        <time>2017-11-20T13:20:28Z</time>
      </trkpt>
      <trkpt lat="43.62162" lon="3.34416">
        <ele>248.89642449518</ele>
        <time>2017-11-20T13:20:29Z</time>
      </trkpt>
      <trkpt lat="43.62162" lon="3.34418">
        <ele>248.89642449518</ele>
        <time>2017-11-20T13:20:29Z</time>
      </trkpt>
      <trkpt lat="43.62123" lon="3.34469">
        <ele>246.62471283331</ele>
        <time>2017-11-20T13:21:11Z</time>
      </trkpt>
      <trkpt lat="43.62124" lon="3.34471">
        <ele>246.62471283331</ele>
        <time>2017-11-20T13:21:16Z</time>
      </trkpt>
      <trkpt lat="43.6212" lon="3.34476">
        <ele>246.62471283331</ele>
        <time>2017-11-20T13:21:31Z</time>
      </trkpt>
      <trkpt lat="43.62117" lon="3.34482">
        <ele>245.05295592722</ele>
        <time>2017-11-20T13:21:41Z</time>
      </trkpt>
      <trkpt lat="43.62116" lon="3.34482">
        <ele>245.05295592722</ele>
        <time>2017-11-20T13:21:46Z</time>
      </trkpt>
      <trkpt lat="43.62116" lon="3.34482">
        <ele>245.05295592722</ele>
        <time>2017-11-20T13:22:06Z</time>
      </trkpt>
      <trkpt lat="43.62117" lon="3.34483">
        <ele>245.05295592722</ele>
        <time>2017-11-20T13:22:11Z</time>
      </trkpt>
      <trkpt lat="43.62117" lon="3.34483">
        <ele>245.05295592722</ele>
        <time>2017-11-20T13:22:26Z</time>
      </trkpt>
      <trkpt lat="43.62111" lon="3.34482">
        <ele>245.05295592722</ele>
        <time>2017-11-20T13:23:46Z</time>
      </trkpt>
      <trkpt lat="43.62111" lon="3.34483">
        <ele>243.79074911111</ele>
        <time>2017-11-20T13:23:51Z</time>
      </trkpt>
      <trkpt lat="43.6211" lon="3.34486">
        <ele>243.79074911111</ele>
        <time>2017-11-20T13:24:06Z</time>
      </trkpt>
      <trkpt lat="43.62107" lon="3.34487">
        <ele>243.79074911111</ele>
        <time>2017-11-20T13:24:11Z</time>
      </trkpt>
      <trkpt lat="43.62104" lon="3.34488">
        <ele>243.79074911111</ele>
        <time>2017-11-20T13:24:16Z</time>
      </trkpt>
      <trkpt lat="43.621" lon="3.3449">
        <ele>242.44667932871</ele>
        <time>2017-11-20T13:24:21Z</time>
      </trkpt>
      <trkpt lat="43.62097" lon="3.34493">
        <ele>242.44667932871</ele>
        <time>2017-11-20T13:24:26Z</time>
      </trkpt>
      <trkpt lat="43.62093" lon="3.34496">
        <ele>242.44667932871</ele>
        <time>2017-11-20T13:24:31Z</time>
      </trkpt>
      <trkpt lat="43.62089" lon="3.34502">
        <ele>241.26363405509</ele>
        <time>2017-11-20T13:24:36Z</time>
      </trkpt>
      <trkpt lat="43.62084" lon="3.34506">
        <ele>241.26363405509</ele>
        <time>2017-11-20T13:24:41Z</time>
      </trkpt>
      <trkpt lat="43.6208" lon="3.34511">
        <ele>240.42298096837</ele>
        <time>2017-11-20T13:24:46Z</time>
      </trkpt>
      <trkpt lat="43.62076" lon="3.34517">
        <ele>240.42298096837</ele>
        <time>2017-11-20T13:24:51Z</time>
      </trkpt>
      <trkpt lat="43.62066" lon="3.34535">
        <ele>240.07743458684</ele>
        <time>2017-11-20T13:25:09Z</time>
      </trkpt>
      <trkpt lat="43.62065" lon="3.34539">
        <ele>240.07743458684</ele>
        <time>2017-11-20T13:25:10Z</time>
      </trkpt>
      <trkpt lat="43.62064" lon="3.3454">
        <ele>240.07743458684</ele>
        <time>2017-11-20T13:25:10Z</time>
      </trkpt>
      <trkpt lat="43.62058" lon="3.34558">
        <ele>240.1365908127</ele>
        <time>2017-11-20T13:25:43Z</time>
      </trkpt>
      <trkpt lat="43.62057" lon="3.34561">
        <ele>240.1365908127</ele>
        <time>2017-11-20T13:25:46Z</time>
      </trkpt>
      <trkpt lat="43.62051" lon="3.34579">
        <ele>240.48683347333</ele>
        <time>2017-11-20T13:26:03Z</time>
      </trkpt>
      <trkpt lat="43.61983" lon="3.34637">
        <ele>241.23837666191</ele>
        <time>2017-11-20T13:27:07Z</time>
      </trkpt>
      <trkpt lat="43.61927" lon="3.34683">
        <ele>242.06002965133</ele>
        <time>2017-11-20T13:28:05Z</time>
      </trkpt>
      <trkpt lat="43.61913" lon="3.34701">
        <ele>242.93314502801</ele>
        <time>2017-11-20T13:28:16Z</time>
      </trkpt>
      <trkpt lat="43.61912" lon="3.34703">
        <ele>242.93314502801</ele>
        <time>2017-11-20T13:28:16Z</time>
      </trkpt>
      <trkpt lat="43.61911" lon="3.34706">
        <ele>242.93314502801</ele>
        <time>2017-11-20T13:28:21Z</time>
      </trkpt>
      <trkpt lat="43.61909" lon="3.34712">
        <ele>242.93314502801</ele>
        <time>2017-11-20T13:29:00Z</time>
      </trkpt>
      <trkpt lat="43.61904" lon="3.34737">
        <ele>243.72521962853</ele>
        <time>2017-11-20T13:29:22Z</time>
      </trkpt>
      <trkpt lat="43.61905" lon="3.34738">
        <ele>243.72521962853</ele>
        <time>2017-11-20T13:29:39Z</time>
      </trkpt>
      <trkpt lat="43.61903" lon="3.34742">
        <ele>243.72521962853</ele>
        <time>2017-11-20T13:29:47Z</time>
      </trkpt>
      <trkpt lat="43.61929" lon="3.3481">
        <ele>244.01130692352</ele>
        <time>2017-11-20T13:31:06Z</time>
      </trkpt>
      <trkpt lat="43.61912" lon="3.34822">
        <ele>244.45137065765</ele>
        <time>2017-11-20T13:31:06Z</time>
      </trkpt>
      <trkpt lat="43.61915" lon="3.34834">
        <ele>244.8641129475</ele>
        <time>2017-11-20T13:31:28Z</time>
      </trkpt>
      <trkpt lat="43.61919" lon="3.34837">
        <ele>244.8641129475</ele>
        <time>2017-11-20T13:31:28Z</time>
      </trkpt>
      <trkpt lat="43.61937" lon="3.34855">
        <ele>245.18279364332</ele>
        <time>2017-11-20T13:32:10Z</time>
      </trkpt>
      <trkpt lat="43.61979" lon="3.34892">
        <ele>245.5334825404</ele>
        <time>2017-11-20T13:33:42Z</time>
      </trkpt>
      <trkpt lat="43.61984" lon="3.34906">
        <ele>245.75938908507</ele>
        <time>2017-11-20T13:34:08Z</time>
      </trkpt>
      <trkpt lat="43.61973" lon="3.34933">
        <ele>246.36441694443</ele>
        <time>2017-11-20T13:34:39Z</time>
      </trkpt>
      <trkpt lat="43.61973" lon="3.34934">
        <ele>246.36441694443</ele>
        <time>2017-11-20T13:34:59Z</time>
      </trkpt>
      <trkpt lat="43.61957" lon="3.34975">
        <ele>246.97885053803</ele>
        <time>2017-11-20T13:35:24Z</time>
      </trkpt>
      <trkpt lat="43.61953" lon="3.34978">
        <ele>246.97885053803</ele>
        <time>2017-11-20T13:35:24Z</time>
      </trkpt>
      <trkpt lat="43.61952" lon="3.34984">
        <ele>247.54866136245</ele>
        <time>2017-11-20T13:35:33Z</time>
      </trkpt>
      <trkpt lat="43.61933" lon="3.35037">
        <ele>247.54866785964</ele>
        <time>2017-11-20T13:36:58Z</time>
      </trkpt>
      <trkpt lat="43.61929" lon="3.35042">
        <ele>247.54866785964</ele>
        <time>2017-11-20T13:37:07Z</time>
      </trkpt>
      <trkpt lat="43.61924" lon="3.35045">
        <ele>247.28682981128</ele>
        <time>2017-11-20T13:37:11Z</time>
      </trkpt>
      <trkpt lat="43.6192" lon="3.35047">
        <ele>247.28682981128</ele>
        <time>2017-11-20T13:37:16Z</time>
      </trkpt>
      <trkpt lat="43.61916" lon="3.35047">
        <ele>247.28682981128</ele>
        <time>2017-11-20T13:37:21Z</time>
      </trkpt>
      <trkpt lat="43.61911" lon="3.35049">
        <ele>246.79014489888</ele>
        <time>2017-11-20T13:37:26Z</time>
      </trkpt>
      <trkpt lat="43.61899" lon="3.35062">
        <ele>245.95491021877</ele>
        <time>2017-11-20T13:37:42Z</time>
      </trkpt>
      <trkpt lat="43.61813" lon="3.35127">
        <ele>243.67750381409</ele>
        <time>2017-11-20T13:39:03Z</time>
      </trkpt>
      <trkpt lat="43.61767" lon="3.35155">
        <ele>240.91409910409</ele>
        <time>2017-11-20T13:39:46Z</time>
      </trkpt>
      <trkpt lat="43.61786" lon="3.35189">
        <ele>238.42257111423</ele>
        <time>2017-11-20T13:40:14Z</time>
      </trkpt>
      <trkpt lat="43.61792" lon="3.352">
        <ele>236.27051363009</ele>
        <time>2017-11-20T13:40:14Z</time>
      </trkpt>
      <trkpt lat="43.61814" lon="3.3524">
        <ele>234.47660757369</ele>
        <time>2017-11-20T13:40:48Z</time>
      </trkpt>
      <trkpt lat="43.61832" lon="3.3534">
        <ele>231.86122577885</ele>
        <time>2017-11-20T13:41:40Z</time>
      </trkpt>
      <trkpt lat="43.61832" lon="3.35342">
        <ele>231.86122577885</ele>
        <time>2017-11-20T13:41:41Z</time>
      </trkpt>
      <trkpt lat="43.61833" lon="3.35362">
        <ele>229.10651005521</ele>
        <time>2017-11-20T13:42:00Z</time>
      </trkpt>
      <trkpt lat="43.61836" lon="3.35384">
        <ele>226.21095673373</ele>
        <time>2017-11-20T13:42:06Z</time>
      </trkpt>
      <trkpt lat="43.61855" lon="3.35467">
        <ele>222.49638950233</ele>
        <time>2017-11-20T13:43:09Z</time>
      </trkpt>
      <trkpt lat="43.61861" lon="3.35498">
        <ele>218.97978095511</ele>
        <time>2017-11-20T13:43:30Z</time>
      </trkpt>
      <trkpt lat="43.61852" lon="3.35521">
        <ele>215.82473391069</ele>
        <time>2017-11-20T13:43:43Z</time>
      </trkpt>
      <trkpt lat="43.61843" lon="3.35548">
        <ele>213.03779291685</ele>
        <time>2017-11-20T13:44:04Z</time>
      </trkpt>
      <trkpt lat="43.61845" lon="3.35597">
        <ele>210.926695955</ele>
        <time>2017-11-20T13:44:49Z</time>
      </trkpt>
      <trkpt lat="43.61896" lon="3.35642">
        <ele>209.5009185896</ele>
        <time>2017-11-20T13:46:11Z</time>
      </trkpt>
      <trkpt lat="43.61903" lon="3.35639">
        <ele>209.5009185896</ele>
        <time>2017-11-20T13:46:11Z</time>
      </trkpt>
      <trkpt lat="43.61924" lon="3.35643">
        <ele>208.62325265195</ele>
        <time>2017-11-20T13:46:29Z</time>
      </trkpt>
      <trkpt lat="43.6198" lon="3.35639">
        <ele>209.73590498968</ele>
        <time>2017-11-20T13:47:39Z</time>
      </trkpt>
      <trkpt lat="43.61983" lon="3.35641">
        <ele>209.73590498968</ele>
        <time>2017-11-20T13:47:39Z</time>
      </trkpt>
      <trkpt lat="43.6202" lon="3.35657">
        <ele>211.02795404009</ele>
        <time>2017-11-20T13:48:49Z</time>
      </trkpt>
      <trkpt lat="43.62022" lon="3.35664">
        <ele>211.02795404009</ele>
        <time>2017-11-20T13:48:49Z</time>
      </trkpt>
      <trkpt lat="43.62035" lon="3.35683">
        <ele>211.75780470927</ele>
        <time>2017-11-20T13:49:48Z</time>
      </trkpt>
      <trkpt lat="43.62049" lon="3.35692">
        <ele>212.40730315844</ele>
        <time>2017-11-20T13:50:06Z</time>
      </trkpt>
      <trkpt lat="43.62053" lon="3.35694">
        <ele>212.40730315844</ele>
        <time>2017-11-20T13:50:15Z</time>
      </trkpt>
      <trkpt lat="43.62071" lon="3.35693">
        <ele>212.96205615753</ele>
        <time>2017-11-20T13:51:03Z</time>
      </trkpt>
      <trkpt lat="43.62087" lon="3.35691">
        <ele>213.69732012394</ele>
        <time>2017-11-20T13:51:26Z</time>
      </trkpt>
      <trkpt lat="43.62093" lon="3.35694">
        <ele>213.69732012394</ele>
        <time>2017-11-20T13:51:26Z</time>
      </trkpt>
      <trkpt lat="43.62098" lon="3.35696">
        <ele>214.56510280705</ele>
        <time>2017-11-20T13:51:31Z</time>
      </trkpt>
      <trkpt lat="43.62101" lon="3.35697">
        <ele>214.56510280705</ele>
        <time>2017-11-20T13:51:36Z</time>
      </trkpt>
      <trkpt lat="43.62105" lon="3.35694">
        <ele>214.56510280705</ele>
        <time>2017-11-20T13:51:41Z</time>
      </trkpt>
      <trkpt lat="43.62107" lon="3.35695">
        <ele>215.63597774861</ele>
        <time>2017-11-20T13:51:46Z</time>
      </trkpt>
      <trkpt lat="43.62113" lon="3.35693">
        <ele>215.63597774861</ele>
        <time>2017-11-20T13:52:01Z</time>
      </trkpt>
      <trkpt lat="43.62118" lon="3.35693">
        <ele>216.52815036816</ele>
        <time>2017-11-20T13:52:06Z</time>
      </trkpt>
      <trkpt lat="43.62122" lon="3.35697">
        <ele>216.52815036816</ele>
        <time>2017-11-20T13:52:11Z</time>
      </trkpt>
      <trkpt lat="43.62129" lon="3.35689">
        <ele>217.29202629117</ele>
        <time>2017-11-20T13:52:18Z</time>
      </trkpt>
      <trkpt lat="43.62153" lon="3.35697">
        <ele>218.60890619221</ele>
        <time>2017-11-20T13:53:36Z</time>
      </trkpt>
      <trkpt lat="43.62156" lon="3.35693">
        <ele>218.60890619221</ele>
        <time>2017-11-20T13:53:44Z</time>
      </trkpt>
      <trkpt lat="43.62161" lon="3.35692">
        <ele>218.60890619221</ele>
        <time>2017-11-20T13:53:51Z</time>
      </trkpt>
      <trkpt lat="43.62164" lon="3.35692">
        <ele>219.86928896291</ele>
        <time>2017-11-20T13:53:56Z</time>
      </trkpt>
      <trkpt lat="43.62169" lon="3.35693">
        <ele>219.86928896291</ele>
        <time>2017-11-20T13:54:15Z</time>
      </trkpt>
      <trkpt lat="43.62226" lon="3.35705">
        <ele>221.25814767597</ele>
        <time>2017-11-20T13:56:26Z</time>
      </trkpt>
      <trkpt lat="43.62226" lon="3.35706">
        <ele>221.25814767597</ele>
        <time>2017-11-20T13:56:26Z</time>
      </trkpt>
      <trkpt lat="43.62268" lon="3.35749">
        <ele>223.32136718752</ele>
        <time>2017-11-20T13:57:59Z</time>
      </trkpt>
      <trkpt lat="43.62268" lon="3.35751">
        <ele>223.32136718752</ele>
        <time>2017-11-20T13:58:01Z</time>
      </trkpt>
      <trkpt lat="43.62275" lon="3.35759">
        <ele>225.36689680445</ele>
        <time>2017-11-20T13:58:12Z</time>
      </trkpt>
      <trkpt lat="43.62289" lon="3.35759">
        <ele>227.50314126546</ele>
        <time>2017-11-20T13:58:56Z</time>
      </trkpt>
      <trkpt lat="43.6229" lon="3.35759">
        <ele>227.50314126546</ele>
        <time>2017-11-20T13:58:59Z</time>
      </trkpt>
      <trkpt lat="43.62324" lon="3.35782">
        <ele>229.90254273399</ele>
        <time>2017-11-20T14:00:44Z</time>
      </trkpt>
      <trkpt lat="43.62332" lon="3.3579">
        <ele>232.58023682781</ele>
        <time>2017-11-20T14:01:08Z</time>
      </trkpt>
      <trkpt lat="43.62336" lon="3.35795">
        <ele>232.58023682781</ele>
        <time>2017-11-20T14:01:24Z</time>
      </trkpt>
      <trkpt lat="43.62334" lon="3.35808">
        <ele>236.57287921987</ele>
        <time>2017-11-20T14:13:24Z</time>
      </trkpt>
      <trkpt lat="43.62357" lon="3.35817">
        <ele>240.76232066033</ele>
        <time>2017-11-20T14:14:46Z</time>
      </trkpt>
      <trkpt lat="43.62388" lon="3.35868">
        <ele>244.81839681242</ele>
        <time>2017-11-20T14:15:57Z</time>
      </trkpt>
      <trkpt lat="43.62391" lon="3.35874">
        <ele>244.81839681242</ele>
        <time>2017-11-20T14:15:57Z</time>
      </trkpt>
      <trkpt lat="43.62409" lon="3.35891">
        <ele>248.6087749792</ele>
        <time>2017-11-20T14:16:24Z</time>
      </trkpt>
      <trkpt lat="43.6242" lon="3.35916">
        <ele>252.1992198936</ele>
        <time>2017-11-20T14:17:06Z</time>
      </trkpt>
      <trkpt lat="43.62468" lon="3.35954">
        <ele>255.56505852782</ele>
        <time>2017-11-20T14:17:56Z</time>
      </trkpt>
      <trkpt lat="43.62473" lon="3.35955">
        <ele>255.56505852782</ele>
        <time>2017-11-20T14:18:01Z</time>
      </trkpt>
      <trkpt lat="43.62475" lon="3.35956">
        <ele>255.56505852782</ele>
        <time>2017-11-20T14:18:06Z</time>
      </trkpt>
      <trkpt lat="43.62478" lon="3.35955">
        <ele>258.78524657846</ele>
        <time>2017-11-20T14:18:11Z</time>
      </trkpt>
      <trkpt lat="43.62481" lon="3.35952">
        <ele>258.78524657846</ele>
        <time>2017-11-20T14:18:26Z</time>
      </trkpt>
      <trkpt lat="43.62482" lon="3.35952">
        <ele>258.78524657846</ele>
        <time>2017-11-20T14:18:31Z</time>
      </trkpt>
      <trkpt lat="43.62484" lon="3.35954">
        <ele>258.78524657846</ele>
        <time>2017-11-20T14:18:36Z</time>
      </trkpt>
      <trkpt lat="43.62496" lon="3.35959">
        <ele>261.87601801176</ele>
        <time>2017-11-20T14:19:00Z</time>
      </trkpt>
      <trkpt lat="43.6254" lon="3.3598">
        <ele>265.34307371605</ele>
        <time>2017-11-20T14:20:00Z</time>
      </trkpt>
      <trkpt lat="43.62568" lon="3.35989">
        <ele>268.83279691727</ele>
        <time>2017-11-20T14:20:32Z</time>
      </trkpt>
      <trkpt lat="43.62613" lon="3.36127">
        <ele>274.04977754465</ele>
        <time>2017-11-20T14:22:28Z</time>
      </trkpt>
      <trkpt lat="43.62613" lon="3.36131">
        <ele>274.04977754465</ele>
        <time>2017-11-20T14:22:31Z</time>
      </trkpt>
      <trkpt lat="43.62615" lon="3.3614">
        <ele>278.79315732557</ele>
        <time>2017-11-20T14:22:36Z</time>
      </trkpt>
      <trkpt lat="43.62616" lon="3.36146">
        <ele>278.79315732557</ele>
        <time>2017-11-20T14:22:41Z</time>
      </trkpt>
      <trkpt lat="43.62615" lon="3.36154">
        <ele>283.23031995621</ele>
        <time>2017-11-20T14:22:46Z</time>
      </trkpt>
      <trkpt lat="43.62611" lon="3.36193">
        <ele>287.44550102116</ele>
        <time>2017-11-20T14:23:30Z</time>
      </trkpt>
      <trkpt lat="43.62657" lon="3.36286">
        <ele>293.36234839754</ele>
        <time>2017-11-20T14:25:08Z</time>
      </trkpt>
      <trkpt lat="43.6267" lon="3.36307">
        <ele>298.92542690468</ele>
        <time>2017-11-20T14:25:21Z</time>
      </trkpt>
      <trkpt lat="43.6267" lon="3.36313">
        <ele>298.92542690468</ele>
        <time>2017-11-20T14:25:26Z</time>
      </trkpt>
      <trkpt lat="43.62669" lon="3.3632">
        <ele>304.03304300603</ele>
        <time>2017-11-20T14:25:31Z</time>
      </trkpt>
      <trkpt lat="43.6267" lon="3.36326">
        <ele>304.03304300603</ele>
        <time>2017-11-20T14:25:36Z</time>
      </trkpt>
      <trkpt lat="43.62668" lon="3.36331">
        <ele>304.03304300603</ele>
        <time>2017-11-20T14:25:41Z</time>
      </trkpt>
      <trkpt lat="43.62665" lon="3.36336">
        <ele>308.75114716012</ele>
        <time>2017-11-20T14:25:46Z</time>
      </trkpt>
      <trkpt lat="43.62663" lon="3.36342">
        <ele>308.75114716012</ele>
        <time>2017-11-20T14:25:51Z</time>
      </trkpt>
      <trkpt lat="43.62661" lon="3.36348">
        <ele>313.0990821842</ele>
        <time>2017-11-20T14:25:56Z</time>
      </trkpt>
      <trkpt lat="43.62659" lon="3.36354">
        <ele>313.0990821842</ele>
        <time>2017-11-20T14:26:01Z</time>
      </trkpt>
      <trkpt lat="43.62657" lon="3.36361">
        <ele>317.05295211526</ele>
        <time>2017-11-20T14:26:06Z</time>
      </trkpt>
      <trkpt lat="43.62657" lon="3.36369">
        <ele>317.05295211526</ele>
        <time>2017-11-20T14:26:13Z</time>
      </trkpt>
      <trkpt lat="43.62657" lon="3.36372">
        <ele>317.05295211526</ele>
        <time>2017-11-20T14:26:16Z</time>
      </trkpt>
      <trkpt lat="43.62625" lon="3.36399">
        <ele>321.54322964255</ele>
        <time>2017-11-20T14:26:46Z</time>
      </trkpt>
      <trkpt lat="43.62624" lon="3.36401">
        <ele>321.54322964255</ele>
        <time>2017-11-20T14:26:51Z</time>
      </trkpt>
      <trkpt lat="43.62599" lon="3.36456">
        <ele>326.59505419366</ele>
        <time>2017-11-20T14:28:00Z</time>
      </trkpt>
      <trkpt lat="43.62604" lon="3.36472">
        <ele>330.80380437265</ele>
        <time>2017-11-20T14:28:21Z</time>
      </trkpt>
      <trkpt lat="43.62607" lon="3.36513">
        <ele>334.61450792838</ele>
        <time>2017-11-20T14:29:08Z</time>
      </trkpt>
      <trkpt lat="43.62609" lon="3.36522">
        <ele>334.61450792838</ele>
        <time>2017-11-20T14:29:08Z</time>
      </trkpt>
      <trkpt lat="43.6261" lon="3.36549">
        <ele>337.87893019801</ele>
        <time>2017-11-20T14:29:26Z</time>
      </trkpt>
      <trkpt lat="43.62611" lon="3.36558">
        <ele>337.87893019801</ele>
        <time>2017-11-20T14:29:31Z</time>
      </trkpt>
      <trkpt lat="43.62614" lon="3.36566">
        <ele>340.50482491396</ele>
        <time>2017-11-20T14:29:36Z</time>
      </trkpt>
      <trkpt lat="43.62617" lon="3.36578">
        <ele>342.55294002606</ele>
        <time>2017-11-20T14:29:41Z</time>
      </trkpt>
      <trkpt lat="43.6262" lon="3.36586">
        <ele>342.55294002606</ele>
        <time>2017-11-20T14:29:46Z</time>
      </trkpt>
      <trkpt lat="43.62622" lon="3.36593">
        <ele>344.08147505484</ele>
        <time>2017-11-20T14:29:51Z</time>
      </trkpt>
      <trkpt lat="43.62625" lon="3.36601">
        <ele>344.08147505484</ele>
        <time>2017-11-20T14:29:56Z</time>
      </trkpt>
      <trkpt lat="43.62628" lon="3.36607">
        <ele>345.03078983326</ele>
        <time>2017-11-20T14:30:01Z</time>
      </trkpt>
      <trkpt lat="43.6263" lon="3.3662">
        <ele>345.43395408907</ele>
        <time>2017-11-20T14:30:11Z</time>
      </trkpt>
      <trkpt lat="43.62629" lon="3.36628">
        <ele>345.43395408907</ele>
        <time>2017-11-20T14:30:16Z</time>
      </trkpt>
      <trkpt lat="43.62635" lon="3.36677">
        <ele>345.59715633734</ele>
        <time>2017-11-20T14:30:52Z</time>
      </trkpt>
      <trkpt lat="43.62637" lon="3.36683">
        <ele>345.59715633734</ele>
        <time>2017-11-20T14:30:56Z</time>
      </trkpt>
      <trkpt lat="43.62638" lon="3.36695">
        <ele>345.60318063771</ele>
        <time>2017-11-20T14:31:09Z</time>
      </trkpt>
      <trkpt lat="43.62642" lon="3.36704">
        <ele>345.60318063771</ele>
        <time>2017-11-20T14:31:12Z</time>
      </trkpt>
      <trkpt lat="43.62647" lon="3.36713">
        <ele>345.4860729725</ele>
        <time>2017-11-20T14:31:26Z</time>
      </trkpt>
      <trkpt lat="43.62649" lon="3.36718">
        <ele>345.4860729725</ele>
        <time>2017-11-20T14:31:26Z</time>
      </trkpt>
      <trkpt lat="43.62652" lon="3.36728">
        <ele>345.29223600938</ele>
        <time>2017-11-20T14:31:36Z</time>
      </trkpt>
      <trkpt lat="43.62653" lon="3.36733">
        <ele>345.29223600938</ele>
        <time>2017-11-20T14:31:41Z</time>
      </trkpt>
      <trkpt lat="43.62655" lon="3.36737">
        <ele>345.29223600938</ele>
        <time>2017-11-20T14:31:51Z</time>
      </trkpt>
      <trkpt lat="43.62656" lon="3.36741">
        <ele>345.03612459874</ele>
        <time>2017-11-20T14:31:56Z</time>
      </trkpt>
      <trkpt lat="43.62658" lon="3.36744">
        <ele>345.03612459874</ele>
        <time>2017-11-20T14:32:01Z</time>
      </trkpt>
      <trkpt lat="43.62658" lon="3.36744">
        <ele>345.03612459874</ele>
        <time>2017-11-20T14:32:06Z</time>
      </trkpt>
      <trkpt lat="43.62659" lon="3.36747">
        <ele>345.03612459874</ele>
        <time>2017-11-20T14:32:11Z</time>
      </trkpt>
      <trkpt lat="43.6266" lon="3.36753">
        <ele>344.73134261642</ele>
        <time>2017-11-20T14:32:16Z</time>
      </trkpt>
      <trkpt lat="43.62661" lon="3.3676">
        <ele>344.73134261642</ele>
        <time>2017-11-20T14:32:23Z</time>
      </trkpt>
      <trkpt lat="43.62661" lon="3.36765">
        <ele>344.73134261642</ele>
        <time>2017-11-20T14:32:26Z</time>
      </trkpt>
      <trkpt lat="43.62661" lon="3.36775">
        <ele>344.36181504641</ele>
        <time>2017-11-20T14:32:31Z</time>
      </trkpt>
      <trkpt lat="43.62662" lon="3.36782">
        <ele>344.36181504641</ele>
        <time>2017-11-20T14:32:36Z</time>
      </trkpt>
      <trkpt lat="43.62664" lon="3.36789">
        <ele>343.82634033835</ele>
        <time>2017-11-20T14:32:41Z</time>
      </trkpt>
      <trkpt lat="43.62666" lon="3.36795">
        <ele>343.82634033835</ele>
        <time>2017-11-20T14:32:46Z</time>
      </trkpt>
      <trkpt lat="43.62668" lon="3.36797">
        <ele>343.82634033835</ele>
        <time>2017-11-20T14:32:58Z</time>
      </trkpt>
      <trkpt lat="43.62672" lon="3.36848">
        <ele>343.8818245405</ele>
        <time>2017-11-20T14:33:45Z</time>
      </trkpt>
      <trkpt lat="43.62673" lon="3.36857">
        <ele>343.8818245405</ele>
        <time>2017-11-20T14:34:03Z</time>
      </trkpt>
      <trkpt lat="43.62678" lon="3.36881">
        <ele>344.30553170248</ele>
        <time>2017-11-20T14:34:11Z</time>
      </trkpt>
      <trkpt lat="43.62677" lon="3.36898">
        <ele>344.76026468003</ele>
        <time>2017-11-20T14:34:27Z</time>
      </trkpt>
      <trkpt lat="43.62679" lon="3.36908">
        <ele>344.76026468003</ele>
        <time>2017-11-20T14:34:47Z</time>
      </trkpt>
      <trkpt lat="43.62692" lon="3.36903">
        <ele>346.08629431132</ele>
        <time>2017-11-20T14:35:30Z</time>
      </trkpt>
      <trkpt lat="43.62717" lon="3.3694">
        <ele>349.27577648877</ele>
        <time>2017-11-20T14:36:56Z</time>
      </trkpt>
      <trkpt lat="43.62738" lon="3.36951">
        <ele>353.03774359432</ele>
        <time>2017-11-20T14:38:28Z</time>
      </trkpt>
      <trkpt lat="43.6275" lon="3.36952">
        <ele>357.03901774196</ele>
        <time>2017-11-20T14:38:53Z</time>
      </trkpt>
      <trkpt lat="43.62757" lon="3.36957">
        <ele>357.03901774196</ele>
        <time>2017-11-20T14:39:11Z</time>
      </trkpt>
      <trkpt lat="43.62764" lon="3.36963">
        <ele>361.17188868608</ele>
        <time>2017-11-20T14:39:29Z</time>
      </trkpt>
      <trkpt lat="43.62764" lon="3.36963">
        <ele>361.17188868608</ele>
        <time>2017-11-20T14:39:29Z</time>
      </trkpt>
      <trkpt lat="43.62776" lon="3.36974">
        <ele>365.43699257816</ele>
        <time>2017-11-20T14:40:09Z</time>
      </trkpt>
      <trkpt lat="43.62777" lon="3.36974">
        <ele>365.43699257816</ele>
        <time>2017-11-20T14:40:09Z</time>
      </trkpt>
      <trkpt lat="43.62814" lon="3.36983">
        <ele>371.67911744341</ele>
        <time>2017-11-20T14:42:15Z</time>
      </trkpt>
      <trkpt lat="43.62828" lon="3.36939">
        <ele>378.5900357655</ele>
        <time>2017-11-20T14:43:11Z</time>
      </trkpt>
      <trkpt lat="43.62828" lon="3.36921">
        <ele>385.51777815171</ele>
        <time>2017-11-20T14:44:12Z</time>
      </trkpt>
      <trkpt lat="43.62832" lon="3.36915">
        <ele>385.51777815171</ele>
        <time>2017-11-20T14:44:12Z</time>
      </trkpt>
      <trkpt lat="43.6283" lon="3.36909">
        <ele>392.06000683274</ele>
        <time>2017-11-20T14:44:17Z</time>
      </trkpt>
      <trkpt lat="43.62831" lon="3.36906">
        <ele>392.06000683274</ele>
        <time>2017-11-20T14:44:21Z</time>
      </trkpt>
      <trkpt lat="43.62833" lon="3.36903">
        <ele>392.06000683274</ele>
        <time>2017-11-20T14:44:26Z</time>
      </trkpt>
      <trkpt lat="43.62837" lon="3.36892">
        <ele>398.63769428516</ele>
        <time>2017-11-20T14:45:08Z</time>
      </trkpt>
      <trkpt lat="43.6286" lon="3.36866">
        <ele>405.56882552355</ele>
        <time>2017-11-20T14:46:00Z</time>
      </trkpt>
      <trkpt lat="43.62866" lon="3.36853">
        <ele>413.16156666982</ele>
        <time>2017-11-20T14:47:15Z</time>
      </trkpt>
      <trkpt lat="43.62873" lon="3.3686">
        <ele>413.16156666982</ele>
        <time>2017-11-20T14:47:22Z</time>
      </trkpt>
      <trkpt lat="43.6288" lon="3.36849">
        <ele>421.52680570501</ele>
        <time>2017-11-20T14:48:24Z</time>
      </trkpt>
      <trkpt lat="43.62889" lon="3.36836">
        <ele>430.289729574</ele>
        <time>2017-11-20T14:48:58Z</time>
      </trkpt>
      <trkpt lat="43.62888" lon="3.36847">
        <ele>430.289729574</ele>
        <time>2017-11-20T14:49:21Z</time>
      </trkpt>
      <trkpt lat="43.62883" lon="3.36867">
        <ele>439.07333043137</ele>
        <time>2017-11-20T14:49:55Z</time>
      </trkpt>
      <trkpt lat="43.62882" lon="3.36868">
        <ele>439.07333043137</ele>
        <time>2017-11-20T14:49:58Z</time>
      </trkpt>
      <trkpt lat="43.62879" lon="3.36888">
        <ele>447.22584331763</ele>
        <time>2017-11-20T14:50:24Z</time>
      </trkpt>
      <trkpt lat="43.6288" lon="3.36903">
        <ele>454.54892940719</ele>
        <time>2017-11-20T14:50:32Z</time>
      </trkpt>
      <trkpt lat="43.62878" lon="3.3691">
        <ele>454.54892940719</ele>
        <time>2017-11-20T14:50:32Z</time>
      </trkpt>
      <trkpt lat="43.62877" lon="3.36949">
        <ele>461.25053375764</ele>
        <time>2017-11-20T14:51:08Z</time>
      </trkpt>
      <trkpt lat="43.62878" lon="3.36955">
        <ele>461.25053375764</ele>
        <time>2017-11-20T14:51:08Z</time>
      </trkpt>
      <trkpt lat="43.62885" lon="3.36982">
        <ele>467.23714750136</ele>
        <time>2017-11-20T14:51:31Z</time>
      </trkpt>
      <trkpt lat="43.62886" lon="3.36988">
        <ele>467.23714750136</ele>
        <time>2017-11-20T14:51:36Z</time>
      </trkpt>
      <trkpt lat="43.62886" lon="3.37025">
        <ele>472.49649818092</ele>
        <time>2017-11-20T14:52:16Z</time>
      </trkpt>
      <trkpt lat="43.62886" lon="3.37035">
        <ele>472.49649818092</ele>
        <time>2017-11-20T14:52:16Z</time>
      </trkpt>
      <trkpt lat="43.62885" lon="3.37045">
        <ele>476.97632561682</ele>
        <time>2017-11-20T14:52:33Z</time>
      </trkpt>
      <trkpt lat="43.62884" lon="3.37052">
        <ele>476.97632561682</ele>
        <time>2017-11-20T14:52:33Z</time>
      </trkpt>
      <trkpt lat="43.62881" lon="3.37061">
        <ele>480.63069028192</ele>
        <time>2017-11-20T14:52:49Z</time>
      </trkpt>
      <trkpt lat="43.6288" lon="3.3707">
        <ele>480.63069028192</ele>
        <time>2017-11-20T14:52:49Z</time>
      </trkpt>
      <trkpt lat="43.62878" lon="3.37087">
        <ele>483.2466882658</ele>
        <time>2017-11-20T14:53:09Z</time>
      </trkpt>
      <trkpt lat="43.62877" lon="3.37096">
        <ele>483.2466882658</ele>
        <time>2017-11-20T14:53:09Z</time>
      </trkpt>
      <trkpt lat="43.6287" lon="3.37113">
        <ele>484.77433488145</ele>
        <time>2017-11-20T14:53:21Z</time>
      </trkpt>
      <trkpt lat="43.62865" lon="3.37122">
        <ele>484.77433488145</ele>
        <time>2017-11-20T14:53:26Z</time>
      </trkpt>
      <trkpt lat="43.62864" lon="3.37129">
        <ele>485.70380742788</ele>
        <time>2017-11-20T14:53:31Z</time>
      </trkpt>
      <trkpt lat="43.62865" lon="3.37132">
        <ele>485.70380742788</ele>
        <time>2017-11-20T14:53:39Z</time>
      </trkpt>
      <trkpt lat="43.62859" lon="3.37161">
        <ele>486.0443988261</ele>
        <time>2017-11-20T14:54:01Z</time>
      </trkpt>
      <trkpt lat="43.62837" lon="3.37224">
        <ele>485.34536528833</ele>
        <time>2017-11-20T14:55:12Z</time>
      </trkpt>
      <trkpt lat="43.62837" lon="3.37231">
        <ele>485.34536528833</ele>
        <time>2017-11-20T14:55:12Z</time>
      </trkpt>
      <trkpt lat="43.62827" lon="3.37259">
        <ele>483.97029642544</ele>
        <time>2017-11-20T14:55:35Z</time>
      </trkpt>
      <trkpt lat="43.62826" lon="3.37258">
        <ele>483.97029642544</ele>
        <time>2017-11-20T14:55:36Z</time>
      </trkpt>
      <trkpt lat="43.62811" lon="3.37285">
        <ele>481.9553935404</ele>
        <time>2017-11-20T14:56:47Z</time>
      </trkpt>
      <trkpt lat="43.628" lon="3.37321">
        <ele>478.90366678777</ele>
        <time>2017-11-20T14:57:05Z</time>
      </trkpt>
      <trkpt lat="43.62797" lon="3.37328">
        <ele>478.90366678777</ele>
        <time>2017-11-20T14:57:05Z</time>
      </trkpt>
      <trkpt lat="43.62796" lon="3.37329">
        <ele>478.90366678777</ele>
        <time>2017-11-20T14:57:06Z</time>
      </trkpt>
      <trkpt lat="43.62796" lon="3.37334">
        <ele>475.631862926</ele>
        <time>2017-11-20T14:57:08Z</time>
      </trkpt>
      <trkpt lat="43.62795" lon="3.37372">
        <ele>471.44172433911</ele>
        <time>2017-11-20T14:57:51Z</time>
      </trkpt>
      <trkpt lat="43.62814" lon="3.37398">
        <ele>466.49572808022</ele>
        <time>2017-11-20T14:59:00Z</time>
      </trkpt>
      <trkpt lat="43.62819" lon="3.37394">
        <ele>466.49572808022</ele>
        <time>2017-11-20T14:59:00Z</time>
      </trkpt>
      <trkpt lat="43.62838" lon="3.37359">
        <ele>461.22013270267</ele>
        <time>2017-11-20T14:59:36Z</time>
      </trkpt>
      <trkpt lat="43.62894" lon="3.37345">
        <ele>453.82004447089</ele>
        <time>2017-11-20T15:01:02Z</time>
      </trkpt>
      <trkpt lat="43.6291" lon="3.37329">
        <ele>445.99583561417</ele>
        <time>2017-11-20T15:01:28Z</time>
      </trkpt>
      <trkpt lat="43.62915" lon="3.37322">
        <ele>445.99583561417</ele>
        <time>2017-11-20T15:01:28Z</time>
      </trkpt>
      <trkpt lat="43.62929" lon="3.37366">
        <ele>436.00920092567</ele>
        <time>2017-11-20T15:02:42Z</time>
      </trkpt>
      <trkpt lat="43.62931" lon="3.37377">
        <ele>436.00920092567</ele>
        <time>2017-11-20T15:02:42Z</time>
      </trkpt>
      <trkpt lat="43.62921" lon="3.37416">
        <ele>424.53207982503</ele>
        <time>2017-11-20T15:03:36Z</time>
      </trkpt>
      <trkpt lat="43.62939" lon="3.37411">
        <ele>413.35798649812</ele>
        <time>2017-11-20T15:04:00Z</time>
      </trkpt>
      <trkpt lat="43.62983" lon="3.3751">
        <ele>396.14903363456</ele>
        <time>2017-11-20T15:06:56Z</time>
      </trkpt>
      <trkpt lat="43.6299" lon="3.37513">
        <ele>396.14903363456</ele>
        <time>2017-11-20T15:07:24Z</time>
      </trkpt>
      <trkpt lat="43.62995" lon="3.37521">
        <ele>379.32739238709</ele>
        <time>2017-11-20T15:07:33Z</time>
      </trkpt>
      <trkpt lat="43.63001" lon="3.3753">
        <ele>363.55268725485</ele>
        <time>2017-11-20T15:07:36Z</time>
      </trkpt>
      <trkpt lat="43.63023" lon="3.37534">
        <ele>347.57321297555</ele>
        <time>2017-11-20T15:08:39Z</time>
      </trkpt>
      <trkpt lat="43.63072" lon="3.37611">
        <ele>330.79082974117</ele>
        <time>2017-11-20T15:09:55Z</time>
      </trkpt>
      <trkpt lat="43.63072" lon="3.37611">
        <ele>330.79082974117</ele>
        <time>2017-11-20T15:10:02Z</time>
      </trkpt>
      <trkpt lat="43.63074" lon="3.37612">
        <ele>330.79082974117</ele>
        <time>2017-11-20T15:10:02Z</time>
      </trkpt>
      <trkpt lat="43.63086" lon="3.37609">
        <ele>314.92947705517</ele>
        <time>2017-11-20T15:10:21Z</time>
      </trkpt>
      <trkpt lat="43.63091" lon="3.37608">
        <ele>314.92947705517</ele>
        <time>2017-11-20T15:10:24Z</time>
      </trkpt>
      <trkpt lat="43.63146" lon="3.37532">
        <ele>297.1008750685</ele>
        <time>2017-11-20T15:11:36Z</time>
      </trkpt>
      <trkpt lat="43.63151" lon="3.37523">
        <ele>297.1008750685</ele>
        <time>2017-11-20T15:11:41Z</time>
      </trkpt>
      <trkpt lat="43.63151" lon="3.37518">
        <ele>280.77236953512</ele>
        <time>2017-11-20T15:11:46Z</time>
      </trkpt>
      <trkpt lat="43.63153" lon="3.37497">
        <ele>265.47630131488</ele>
        <time>2017-11-20T15:12:01Z</time>
      </trkpt>
      <trkpt lat="43.63156" lon="3.37491">
        <ele>265.47630131488</ele>
        <time>2017-11-20T15:12:06Z</time>
      </trkpt>
      <trkpt lat="43.63159" lon="3.37484">
        <ele>251.62543158686</ele>
        <time>2017-11-20T15:12:11Z</time>
      </trkpt>
      <trkpt lat="43.63162" lon="3.37478">
        <ele>251.62543158686</ele>
        <time>2017-11-20T15:12:16Z</time>
      </trkpt>
      <trkpt lat="43.63165" lon="3.37471">
        <ele>239.06361471066</ele>
        <time>2017-11-20T15:12:21Z</time>
      </trkpt>
      <trkpt lat="43.63167" lon="3.37463">
        <ele>239.06361471066</ele>
        <time>2017-11-20T15:12:26Z</time>
      </trkpt>
      <trkpt lat="43.63172" lon="3.3745">
        <ele>227.91504078945</ele>
        <time>2017-11-20T15:12:36Z</time>
      </trkpt>
      <trkpt lat="43.63173" lon="3.37442">
        <ele>227.91504078945</ele>
        <time>2017-11-20T15:12:41Z</time>
      </trkpt>
      <trkpt lat="43.63179" lon="3.37433">
        <ele>218.20302258208</ele>
        <time>2017-11-20T15:12:51Z</time>
      </trkpt>
      <trkpt lat="43.63182" lon="3.37427">
        <ele>218.20302258208</ele>
        <time>2017-11-20T15:12:56Z</time>
      </trkpt>
      <trkpt lat="43.63224" lon="3.37405">
        <ele>209.97265139557</ele>
        <time>2017-11-20T15:13:44Z</time>
      </trkpt>
      <trkpt lat="43.63233" lon="3.3741">
        <ele>203.08735119863</ele>
        <time>2017-11-20T15:13:44Z</time>
      </trkpt>
      <trkpt lat="43.63344" lon="3.37322">
        <ele>198.29466888152</ele>
        <time>2017-11-20T15:15:36Z</time>
      </trkpt>
      <trkpt lat="43.63347" lon="3.3732">
        <ele>198.29466888152</ele>
        <time>2017-11-20T15:15:41Z</time>
      </trkpt>
      <trkpt lat="43.63354" lon="3.37309">
        <ele>194.45000247547</ele>
        <time>2017-11-20T15:15:50Z</time>
      </trkpt>
      <trkpt lat="43.63354" lon="3.37308">
        <ele>194.45000247547</ele>
        <time>2017-11-20T15:15:51Z</time>
      </trkpt>
      <trkpt lat="43.63438" lon="3.37162">
        <ele>190.50350238681</ele>
        <time>2017-11-20T15:18:09Z</time>
      </trkpt>
      <trkpt lat="43.63436" lon="3.37153">
        <ele>190.50350238681</ele>
        <time>2017-11-20T15:18:09Z</time>
      </trkpt>
      <trkpt lat="43.63453" lon="3.37115">
        <ele>186.9516564164</ele>
        <time>2017-11-20T15:18:41Z</time>
      </trkpt>
      <trkpt lat="43.63517" lon="3.37092">
        <ele>183.37337159662</ele>
        <time>2017-11-20T15:19:39Z</time>
      </trkpt>
      <trkpt lat="43.6352" lon="3.37094">
        <ele>183.37337159662</ele>
        <time>2017-11-20T15:19:39Z</time>
      </trkpt>
      <trkpt lat="43.63523" lon="3.37094">
        <ele>183.37337159662</ele>
        <time>2017-11-20T15:19:41Z</time>
      </trkpt>
      <trkpt lat="43.63533" lon="3.37094">
        <ele>180.21356229823</ele>
        <time>2017-11-20T15:19:55Z</time>
      </trkpt>
      <trkpt lat="43.63539" lon="3.37079">
        <ele>177.60870738638</ele>
        <time>2017-11-20T15:19:56Z</time>
      </trkpt>
      <trkpt lat="43.63545" lon="3.37061">
        <ele>175.40920168713</ele>
        <time>2017-11-20T15:20:16Z</time>
      </trkpt>
      <trkpt lat="43.63562" lon="3.37003">
        <ele>173.14322221004</ele>
        <time>2017-11-20T15:20:42Z</time>
      </trkpt>
      <trkpt lat="43.63578" lon="3.36905">
        <ele>170.61823986333</ele>
        <time>2017-11-20T15:22:12Z</time>
      </trkpt>
    </trkseg>
  </trk>
</gpx>